Little Rock Air Force Base Jacksonville US
ICAO: KLRF
IATA: LRF
Category: Medium
Scheduled Services: No

Elevation: 311 ft
TransAlt. 18000 ft.

Airport Communications:
APP/DEP:119.5
ATIS:25.11
CLNC DEL:25.35
GND:132.8
ANG COMD POST:143.8
PMSV METRO:23.98
COMD POST:34.94
PTD:37.22
TWR:120.6

KLRF Zoom In..

Runways:

(A) RW 07 length 12000 ft width 200 ft
---- / hdg 70

(B) RW 25 length 12000 ft width 200 ft
ILS 109.90 / hdg 250

Location; KLRF
Day. 14 / Time. 00.56 Zulu
* Altimeter: 29.90
* Temperature: 28° c. 82.4°f.
* Wind from: 060° Speed 03 kn.
Dewpoint: 25° c.
Visibility: 10 Statute Miles.
Clouds: Clear (automated report).

KLRF 140056Z AUTO 06003KT 10SM CLR 28/25 A2990 RMK AO2 SLPNO T02830245

Going to: --> -->


Wind From 060°
Speed 03 kn.

 
 
jpsmedia worldairports.se 2020   terms of use